sensor_id;sensor_type;location;lat;lon;timestamp;pressure;altitude;pressure_sealevel;temperature;humidity
56944;BME280;42848;42.524;12.052;2023-03-20T00:02:06;97073.84;;;11.15;100.00
56944;BME280;42848;42.524;12.052;2023-03-20T00:04:32;97076.88;;;11.14;100.00
56944;BME280;42848;42.524;12.052;2023-03-20T00:06:58;97074.19;;;11.14;100.00
56944;BME280;42848;42.524;12.052;2023-03-20T00:09:24;97074.38;;;11.17;100.00
56944;BME280;42848;42.524;12.052;2023-03-20T00:11:52;97072.75;;;11.16;100.00
56944;BME280;42848;42.524;12.052;2023-03-20T00:14:19;97087.00;;;11.22;100.00
56944;BME280;42848;42.524;12.052;2023-03-20T00:16:48;97070.06;;;11.16;100.00
56944;BME280;42848;42.524;12.052;2023-03-20T00:19:21;97070.69;;;11.22;100.00
56944;BME280;42848;42.524;12.052;2023-03-20T00:21:48;97070.50;;;11.09;100.00
56944;BME280;42848;42.524;12.052;2023-03-20T00:24:15;97068.25;;;11.11;100.00
56944;BME280;42848;42.524;12.052;2023-03-20T00:26:43;97071.97;;;11.16;100.00
56944;BME280;42848;42.524;12.052;2023-03-20T00:29:17;97065.56;;;11.20;100.00
56944;BME280;42848;42.524;12.052;2023-03-20T00:31:44;97063.63;;;11.12;100.00
56944;BME280;42848;42.524;12.052;2023-03-20T00:34:15;97072.75;;;11.16;100.00
56944;BME280;42848;42.524;12.052;2023-03-20T00:36:42;97069.56;;;11.23;100.00
56944;BME280;42848;42.524;12.052;2023-03-20T00:39:08;97067.97;;;11.22;100.00
56944;BME280;42848;42.524;12.052;2023-03-20T00:41:40;97065.41;;;11.17;100.00
56944;BME280;42848;42.524;12.052;2023-03-20T00:46:47;97062.53;;;11.22;100.00
56944;BME280;42848;42.524;12.052;2023-03-20T00:49:13;97061.88;;;11.07;100.00
56944;BME280;42848;42.524;12.052;2023-03-20T00:51:39;97048.63;;;11.23;100.00
56944;BME280;42848;42.524;12.052;2023-03-20T00:54:14;97047.81;;;11.23;100.00
56944;BME280;42848;42.524;12.052;2023-03-20T00:57:13;97038.91;;;11.31;100.00
56944;BME280;42848;42.524;12.052;2023-03-20T01:00:06;97026.97;;;10.92;100.00
56944;BME280;42848;42.524;12.052;2023-03-20T01:02:33;97019.00;;;11.04;100.00
56944;BME280;42848;42.524;12.052;2023-03-20T01:04:59;97023.19;;;11.10;100.00
56944;BME280;42848;42.524;12.052;2023-03-20T01:07:25;97004.75;;;10.90;100.00
56944;BME280;42848;42.524;12.052;2023-03-20T01:09:51;96986.41;;;10.56;100.00
56944;BME280;42848;42.524;12.052;2023-03-20T01:12:17;96989.38;;;10.37;100.00
56944;BME280;42848;42.524;12.052;2023-03-20T01:14:43;96981.38;;;10.72;100.00
56944;BME280;42848;42.524;12.052;2023-03-20T01:17:22;96976.84;;;10.59;100.00
56944;BME280;42848;42.524;12.052;2023-03-20T01:19:48;96960.72;;;10.53;100.00
56944;BME280;42848;42.524;12.052;2023-03-20T01:22:14;96955.72;;;10.47;100.00
56944;BME280;42848;42.524;12.052;2023-03-20T01:24:42;96951.84;;;10.79;100.00
56944;BME280;42848;42.524;12.052;2023-03-20T01:27:13;96947.91;;;10.45;100.00
56944;BME280;42848;42.524;12.052;2023-03-20T01:29:40;96948.31;;;10.70;100.00
56944;BME280;42848;42.524;12.052;2023-03-20T01:32:15;96940.53;;;10.37;100.00
56944;BME280;42848;42.524;12.052;2023-03-20T01:34:41;96937.03;;;10.45;100.00
56944;BME280;42848;42.524;12.052;2023-03-20T01:37:14;96938.00;;;10.49;100.00
56944;BME280;42848;42.524;12.052;2023-03-20T01:39:41;96936.69;;;10.87;100.00
56944;BME280;42848;42.524;12.052;2023-03-20T01:42:07;96941.66;;;10.93;100.00
56944;BME280;42848;42.524;12.052;2023-03-20T01:44:34;96932.38;;;10.94;100.00
56944;BME280;42848;42.524;12.052;2023-03-20T01:47:04;96930.13;;;10.88;100.00
56944;BME280;42848;42.524;12.052;2023-03-20T01:52:38;96932.72;;;10.93;100.00
56944;BME280;42848;42.524;12.052;2023-03-20T01:55:04;96929.97;;;10.84;100.00
56944;BME280;42848;42.524;12.052;2023-03-20T01:57:30;96940.72;;;11.06;100.00
56944;BME280;42848;42.524;12.052;2023-03-20T02:00:09;96934.97;;;10.99;100.00
56944;BME280;42848;42.524;12.052;2023-03-20T02:02:37;96937.50;;;10.96;100.00
56944;BME280;42848;42.524;12.052;2023-03-20T02:05:08;96932.59;;;11.06;100.00
56944;BME280;42848;42.524;12.052;2023-03-20T02:07:35;96932.88;;;11.14;100.00
56944;BME280;42848;42.524;12.052;2023-03-20T02:10:05;96928.88;;;11.02;100.00
56944;BME280;42848;42.524;12.052;2023-03-20T02:12:34;96928.84;;;10.85;100.00
56944;BME280;42848;42.524;12.052;2023-03-20T02:15:00;96932.84;;;10.88;100.00
56944;BME280;42848;42.524;12.052;2023-03-20T02:17:26;96932.56;;;10.98;100.00
56944;BME280;42848;42.524;12.052;2023-03-20T02:20:16;96942.34;;;11.07;100.00
56944;BME280;42848;42.524;12.052;2023-03-20T02:26:11;96936.91;;;11.07;100.00
56944;BME280;42848;42.524;12.052;2023-03-20T02:29:09;96937.84;;;11.03;100.00
56944;BME280;42848;42.524;12.052;2023-03-20T02:38:08;96929.53;;;10.99;100.00
56944;BME280;42848;42.524;12.052;2023-03-20T02:41:00;96922.00;;;11.05;100.00
56944;BME280;42848;42.524;12.052;2023-03-20T02:46:53;96913.84;;;10.96;100.00
56944;BME280;42848;42.524;12.052;2023-03-20T02:49:49;96905.41;;;10.89;100.00
56944;BME280;42848;42.524;12.052;2023-03-20T02:52:36;96891.88;;;10.58;100.00
56944;BME280;42848;42.524;12.052;2023-03-20T02:58:00;96900.03;;;10.58;100.00
56944;BME280;42848;42.524;12.052;2023-03-20T03:00:37;96899.41;;;10.52;100.00
56944;BME280;42848;42.524;12.052;2023-03-20T03:03:10;96910.13;;;10.66;100.00
56944;BME280;42848;42.524;12.052;2023-03-20T03:05:44;96898.44;;;10.57;100.00
56944;BME280;42848;42.524;12.052;2023-03-20T03:08:13;96900.41;;;10.25;100.00
56944;BME280;42848;42.524;12.052;2023-03-20T03:11:04;96892.47;;;10.38;100.00
56944;BME280;42848;42.524;12.052;2023-03-20T03:13:33;96885.00;;;10.43;100.00
56944;BME280;42848;42.524;12.052;2023-03-20T03:16:04;96882.31;;;10.21;100.00
56944;BME280;42848;42.524;12.052;2023-03-20T03:18:33;96886.69;;;10.31;100.00
56944;BME280;42848;42.524;12.052;2023-03-20T03:21:01;96891.41;;;10.56;100.00
56944;BME280;42848;42.524;12.052;2023-03-20T03:23:31;96884.75;;;10.71;100.00
56944;BME280;42848;42.524;12.052;2023-03-20T03:25:59;96877.03;;;10.56;100.00
56944;BME280;42848;42.524;12.052;2023-03-20T03:28:32;96875.25;;;10.42;100.00
56944;BME280;42848;42.524;12.052;2023-03-20T03:31:10;96879.69;;;10.38;100.00
56944;BME280;42848;42.524;12.052;2023-03-20T03:33:41;96872.94;;;10.84;100.00
56944;BME280;42848;42.524;12.052;2023-03-20T03:46:49;96836.28;;;10.38;100.00
56944;BME280;42848;42.524;12.052;2023-03-20T03:49:22;96820.03;;;9.98;100.00
56944;BME280;42848;42.524;12.052;2023-03-20T03:51:54;96815.84;;;9.92;100.00
56944;BME280;42848;42.524;12.052;2023-03-20T03:54:46;96824.75;;;10.24;100.00
56944;BME280;42848;42.524;12.052;2023-03-20T03:57:15;96832.16;;;10.49;100.00
56944;BME280;42848;42.524;12.052;2023-03-20T03:59:47;96828.84;;;10.61;100.00
56944;BME280;42848;42.524;12.052;2023-03-20T04:02:16;96828.22;;;10.81;100.00
56944;BME280;42848;42.524;12.052;2023-03-20T04:04:47;96823.56;;;10.73;100.00
56944;BME280;42848;42.524;12.052;2023-03-20T04:07:14;96822.47;;;10.83;100.00
56944;BME280;42848;42.524;12.052;2023-03-20T04:09:40;96819.59;;;10.88;100.00
56944;BME280;42848;42.524;12.052;2023-03-20T04:14:55;96829.41;;;10.32;100.00
56944;BME280;42848;42.524;12.052;2023-03-20T04:17:20;96815.50;;;10.25;100.00
56944;BME280;42848;42.524;12.052;2023-03-20T04:19:46;96806.59;;;10.42;100.00
56944;BME280;42848;42.524;12.052;2023-03-20T04:22:11;96810.94;;;10.69;100.00
56944;BME280;42848;42.524;12.052;2023-03-20T04:24:37;96814.78;;;10.68;100.00
56944;BME280;42848;42.524;12.052;2023-03-20T04:27:03;96820.06;;;10.81;100.00
56944;BME280;42848;42.524;12.052;2023-03-20T04:29:28;96831.25;;;10.80;100.00
56944;BME280;42848;42.524;12.052;2023-03-20T04:31:54;96824.00;;;10.49;100.00
56944;BME280;42848;42.524;12.052;2023-03-20T04:34:21;96816.06;;;10.53;100.00
56944;BME280;42848;42.524;12.052;2023-03-20T04:36:49;96814.00;;;10.10;100.00
56944;BME280;42848;42.524;12.052;2023-03-20T04:39:15;96816.34;;;10.34;100.00
56944;BME280;42848;42.524;12.052;2023-03-20T04:41:41;96813.94;;;10.41;100.00
56944;BME280;42848;42.524;12.052;2023-03-20T04:44:07;96820.50;;;10.58;100.00
56944;BME280;42848;42.524;12.052;2023-03-20T04:46:32;96818.78;;;10.62;100.00
56944;BME280;42848;42.524;12.052;2023-03-20T04:48:58;96820.13;;;10.33;100.00
56944;BME280;42848;42.524;12.052;2023-03-20T04:51:23;96816.50;;;10.46;100.00
56944;BME280;42848;42.524;12.052;2023-03-20T04:53:49;96814.66;;;10.16;100.00
56944;BME280;42848;42.524;12.052;2023-03-20T04:56:15;96817.31;;;10.56;100.00
56944;BME280;42848;42.524;12.052;2023-03-20T04:58:40;96815.53;;;10.51;100.00
56944;BME280;42848;42.524;12.052;2023-03-20T05:01:06;96805.63;;;10.38;100.00
56944;BME280;42848;42.524;12.052;2023-03-20T05:03:32;96796.41;;;10.56;100.00
56944;BME280;42848;42.524;12.052;2023-03-20T05:05:58;96805.81;;;10.59;100.00
56944;BME280;42848;42.524;12.052;2023-03-20T05:08:24;96810.59;;;10.44;100.00
56944;BME280;42848;42.524;12.052;2023-03-20T05:10:50;96815.06;;;10.40;100.00
56944;BME280;42848;42.524;12.052;2023-03-20T05:13:16;96807.75;;;10.58;100.00
56944;BME280;42848;42.524;12.052;2023-03-20T05:15:42;96815.75;;;10.72;100.00
56944;BME280;42848;42.524;12.052;2023-03-20T05:18:08;96807.13;;;10.52;100.00
56944;BME280;42848;42.524;12.052;2023-03-20T05:20:34;96816.34;;;10.34;100.00
56944;BME280;42848;42.524;12.052;2023-03-20T05:23:01;96814.72;;;10.33;100.00
56944;BME280;42848;42.524;12.052;2023-03-20T05:25:27;96811.88;;;10.38;100.00
56944;BME280;42848;42.524;12.052;2023-03-20T05:27:53;96803.63;;;10.61;100.00
56944;BME280;42848;42.524;12.052;2023-03-20T05:30:19;96806.00;;;10.62;100.00
56944;BME280;42848;42.524;12.052;2023-03-20T05:32:48;96808.50;;;10.41;100.00
56944;BME280;42848;42.524;12.052;2023-03-20T05:35:14;96805.47;;;10.34;100.00
56944;BME280;42848;42.524;12.052;2023-03-20T05:37:39;96798.28;;;10.30;100.00
56944;BME280;42848;42.524;12.052;2023-03-20T05:40:06;96796.44;;;10.08;100.00
56944;BME280;42848;42.524;12.052;2023-03-20T05:42:32;96800.22;;;9.89;100.00
56944;BME280;42848;42.524;12.052;2023-03-20T05:44:58;96803.81;;;9.76;100.00
56944;BME280;42848;42.524;12.052;2023-03-20T05:47:23;96817.63;;;9.66;100.00
56944;BME280;42848;42.524;12.052;2023-03-20T05:49:49;96805.19;;;9.65;100.00
56944;BME280;42848;42.524;12.052;2023-03-20T05:52:14;96813.31;;;10.05;100.00
56944;BME280;42848;42.524;12.052;2023-03-20T05:54:40;96815.41;;;9.99;100.00
56944;BME280;42848;42.524;12.052;2023-03-20T05:57:05;96815.91;;;10.10;100.00
56944;BME280;42848;42.524;12.052;2023-03-20T05:59:31;96823.56;;;10.08;100.00
56944;BME280;42848;42.524;12.052;2023-03-20T06:01:56;96826.91;;;10.44;100.00
56944;BME280;42848;42.524;12.052;2023-03-20T06:04:22;96833.13;;;10.45;100.00
56944;BME280;42848;42.524;12.052;2023-03-20T06:06:48;96840.63;;;10.57;100.00
56944;BME280;42848;42.524;12.052;2023-03-20T06:09:13;96835.13;;;10.22;100.00
56944;BME280;42848;42.524;12.052;2023-03-20T06:11:39;96834.19;;;10.27;100.00
56944;BME280;42848;42.524;12.052;2023-03-20T06:14:04;96847.91;;;10.30;100.00
56944;BME280;42848;42.524;12.052;2023-03-20T06:16:30;96845.47;;;10.20;100.00
56944;BME280;42848;42.524;12.052;2023-03-20T06:18:56;96849.19;;;9.93;100.00
56944;BME280;42848;42.524;12.052;2023-03-20T06:21:22;96845.97;;;9.91;100.00
56944;BME280;42848;42.524;12.052;2023-03-20T06:23:48;96832.03;;;9.75;100.00
56944;BME280;42848;42.524;12.052;2023-03-20T06:26:13;96842.06;;;9.44;100.00
56944;BME280;42848;42.524;12.052;2023-03-20T06:28:40;96847.91;;;9.37;100.00
56944;BME280;42848;42.524;12.052;2023-03-20T06:31:06;96849.69;;;9.41;100.00
56944;BME280;42848;42.524;12.052;2023-03-20T06:33:31;96848.44;;;9.48;100.00
56944;BME280;42848;42.524;12.052;2023-03-20T06:35:57;96842.47;;;9.59;100.00
56944;BME280;42848;42.524;12.052;2023-03-20T06:38:22;96844.38;;;9.59;100.00
56944;BME280;42848;42.524;12.052;2023-03-20T06:40:48;96853.56;;;9.49;100.00
56944;BME280;42848;42.524;12.052;2023-03-20T06:43:14;96862.69;;;9.84;100.00
56944;BME280;42848;42.524;12.052;2023-03-20T06:45:39;96865.16;;;10.03;100.00
56944;BME280;42848;42.524;12.052;2023-03-20T06:48:06;96871.00;;;10.19;100.00
56944;BME280;42848;42.524;12.052;2023-03-20T06:50:32;96871.47;;;9.81;100.00
56944;BME280;42848;42.524;12.052;2023-03-20T06:52:58;96877.88;;;9.63;100.00
56944;BME280;42848;42.524;12.052;2023-03-20T06:55:24;96873.13;;;9.68;100.00
56944;BME280;42848;42.524;12.052;2023-03-20T06:57:49;96874.31;;;9.31;100.00
56944;BME280;42848;42.524;12.052;2023-03-20T07:00:15;96873.97;;;9.24;100.00
56944;BME280;42848;42.524;12.052;2023-03-20T07:02:41;96874.63;;;9.30;100.00
56944;BME280;42848;42.524;12.052;2023-03-20T07:05:07;96880.78;;;9.22;100.00
56944;BME280;42848;42.524;12.052;2023-03-20T07:07:34;96888.25;;;9.16;100.00
56944;BME280;42848;42.524;12.052;2023-03-20T07:10:01;96895.34;;;9.12;100.00
56944;BME280;42848;42.524;12.052;2023-03-20T07:12:28;96892.13;;;9.24;100.00
56944;BME280;42848;42.524;12.052;2023-03-20T07:14:54;96895.56;;;9.38;100.00
56944;BME280;42848;42.524;12.052;2023-03-20T07:17:20;96905.34;;;9.25;100.00
56944;BME280;42848;42.524;12.052;2023-03-20T07:19:48;96902.81;;;9.29;100.00
56944;BME280;42848;42.524;12.052;2023-03-20T07:22:29;96909.66;;;9.26;100.00
56944;BME280;42848;42.524;12.052;2023-03-20T07:24:55;96907.94;;;9.30;100.00
56944;BME280;42848;42.524;12.052;2023-03-20T07:27:21;96909.72;;;9.35;100.00
56944;BME280;42848;42.524;12.052;2023-03-20T07:29:47;96905.66;;;9.46;100.00
56944;BME280;42848;42.524;12.052;2023-03-20T07:32:13;96905.22;;;9.30;100.00
56944;BME280;42848;42.524;12.052;2023-03-20T07:34:38;96911.25;;;9.27;100.00
56944;BME280;42848;42.524;12.052;2023-03-20T07:37:04;96902.72;;;9.34;100.00
56944;BME280;42848;42.524;12.052;2023-03-20T07:39:30;96904.31;;;9.35;100.00
56944;BME280;42848;42.524;12.052;2023-03-20T07:41:56;96912.75;;;9.33;100.00
56944;BME280;42848;42.524;12.052;2023-03-20T07:44:22;96920.44;;;9.40;100.00
56944;BME280;42848;42.524;12.052;2023-03-20T07:46:47;96929.00;;;9.33;100.00
56944;BME280;42848;42.524;12.052;2023-03-20T07:49:14;96926.00;;;9.35;100.00
56944;BME280;42848;42.524;12.052;2023-03-20T07:51:47;96928.22;;;9.33;100.00
56944;BME280;42848;42.524;12.052;2023-03-20T07:54:13;96930.63;;;9.34;100.00
56944;BME280;42848;42.524;12.052;2023-03-20T07:56:39;96928.13;;;9.24;100.00
56944;BME280;42848;42.524;12.052;2023-03-20T07:59:05;96931.66;;;9.25;100.00
56944;BME280;42848;42.524;12.052;2023-03-20T08:01:31;96933.66;;;9.19;100.00
56944;BME280;42848;42.524;12.052;2023-03-20T08:03:56;96929.44;;;9.27;100.00
56944;BME280;42848;42.524;12.052;2023-03-20T08:06:22;96936.44;;;9.28;100.00
56944;BME280;42848;42.524;12.052;2023-03-20T08:08:47;96939.31;;;9.09;100.00
56944;BME280;42848;42.524;12.052;2023-03-20T08:11:16;96947.53;;;9.04;100.00
56944;BME280;42848;42.524;12.052;2023-03-20T08:13:41;96940.28;;;9.13;100.00
56944;BME280;42848;42.524;12.052;2023-03-20T08:16:08;96935.53;;;8.96;100.00
56944;BME280;42848;42.524;12.052;2023-03-20T08:18:34;96943.50;;;9.15;100.00
56944;BME280;42848;42.524;12.052;2023-03-20T08:21:00;96953.56;;;9.01;100.00
56944;BME280;42848;42.524;12.052;2023-03-20T08:23:26;96937.22;;;9.42;100.00
56944;BME280;42848;42.524;12.052;2023-03-20T08:25:52;96941.38;;;9.48;100.00
56944;BME280;42848;42.524;12.052;2023-03-20T08:28:19;96937.03;;;9.61;100.00
56944;BME280;42848;42.524;12.052;2023-03-20T08:30:46;96936.38;;;9.86;100.00
56944;BME280;42848;42.524;12.052;2023-03-20T08:33:13;96934.44;;;9.56;100.00
56944;BME280;42848;42.524;12.052;2023-03-20T08:35:39;96940.97;;;9.55;100.00
56944;BME280;42848;42.524;12.052;2023-03-20T08:38:05;96941.63;;;9.38;100.00
56944;BME280;42848;42.524;12.052;2023-03-20T08:40:30;96934.31;;;9.61;100.00
56944;BME280;42848;42.524;12.052;2023-03-20T08:42:56;96928.69;;;9.35;100.00
56944;BME280;42848;42.524;12.052;2023-03-20T08:45:22;96939.69;;;9.16;100.00
56944;BME280;42848;42.524;12.052;2023-03-20T08:47:51;96941.06;;;9.27;100.00
56944;BME280;42848;42.524;12.052;2023-03-20T08:50:17;96953.66;;;9.32;100.00
56944;BME280;42848;42.524;12.052;2023-03-20T08:52:43;96957.81;;;9.29;100.00
56944;BME280;42848;42.524;12.052;2023-03-20T08:55:12;96955.44;;;9.14;100.00
56944;BME280;42848;42.524;12.052;2023-03-20T08:57:39;96949.91;;;9.19;100.00
56944;BME280;42848;42.524;12.052;2023-03-20T09:00:07;96951.97;;;9.36;100.00
56944;BME280;42848;42.524;12.052;2023-03-20T09:02:34;96938.59;;;9.39;100.00
56944;BME280;42848;42.524;12.052;2023-03-20T09:05:00;96941.56;;;9.29;100.00
56944;BME280;42848;42.524;12.052;2023-03-20T09:07:26;96942.91;;;9.18;100.00
56944;BME280;42848;42.524;12.052;2023-03-20T09:09:51;96930.06;;;9.24;100.00
56944;BME280;42848;42.524;12.052;2023-03-20T09:12:17;96940.56;;;9.25;100.00
56944;BME280;42848;42.524;12.052;2023-03-20T09:14:43;96932.75;;;9.24;100.00
56944;BME280;42848;42.524;12.052;2023-03-20T09:17:09;96950.53;;;9.16;100.00
56944;BME280;42848;42.524;12.052;2023-03-20T09:19:34;96942.72;;;9.15;100.00
56944;BME280;42848;42.524;12.052;2023-03-20T09:22:02;96938.09;;;9.15;100.00
56944;BME280;42848;42.524;12.052;2023-03-20T09:24:27;96943.44;;;9.43;100.00
56944;BME280;42848;42.524;12.052;2023-03-20T09:26:53;96945.53;;;9.32;100.00
56944;BME280;42848;42.524;12.052;2023-03-20T09:29:19;96948.63;;;9.39;100.00
56944;BME280;42848;42.524;12.052;2023-03-20T09:31:45;96958.44;;;9.26;100.00
56944;BME280;42848;42.524;12.052;2023-03-20T09:34:10;96956.50;;;9.27;100.00
56944;BME280;42848;42.524;12.052;2023-03-20T09:36:36;96948.94;;;9.15;100.00
56944;BME280;42848;42.524;12.052;2023-03-20T09:39:02;96951.28;;;9.30;100.00
56944;BME280;42848;42.524;12.052;2023-03-20T09:41:28;96955.44;;;9.14;100.00
56944;BME280;42848;42.524;12.052;2023-03-20T09:52:25;96953.00;;;9.26;100.00
56944;BME280;42848;42.524;12.052;2023-03-20T09:54:58;96948.31;;;9.18;100.00
56944;BME280;42848;42.524;12.052;2023-03-20T09:57:28;96947.66;;;9.35;100.00
56944;BME280;42848;42.524;12.052;2023-03-20T09:59:59;96949.91;;;9.19;100.00
56944;BME280;42848;42.524;12.052;2023-03-20T10:02:37;96944.09;;;9.26;100.00
56944;BME280;42848;42.524;12.052;2023-03-20T10:05:16;96947.47;;;9.31;100.00
56944;BME280;42848;42.524;12.052;2023-03-20T10:07:44;96945.41;;;9.73;100.00
56944;BME280;42848;42.524;12.052;2023-03-20T10:10:13;96947.13;;;9.91;100.00
56944;BME280;42848;42.524;12.052;2023-03-20T10:12:47;96945.38;;;9.95;100.00
56944;BME280;42848;42.524;12.052;2023-03-20T10:15:27;96946.38;;;10.00;100.00
56944;BME280;42848;42.524;12.052;2023-03-20T10:18:22;96950.78;;;9.95;100.00
56944;BME280;42848;42.524;12.052;2023-03-20T10:21:05;96942.81;;;9.90;100.00
56944;BME280;42848;42.524;12.052;2023-03-20T10:23:56;96937.44;;;9.77;100.00
56944;BME280;42848;42.524;12.052;2023-03-20T10:26:25;96934.31;;;9.61;100.00
56944;BME280;42848;42.524;12.052;2023-03-20T10:28:59;96933.81;;;9.36;100.00
56944;BME280;42848;42.524;12.052;2023-03-20T10:37:19;96925.78;;;9.76;100.00
56944;BME280;42848;42.524;12.052;2023-03-20T10:42:27;96925.78;;;9.31;100.00
56944;BME280;42848;42.524;12.052;2023-03-20T10:44:58;96922.22;;;9.67;100.00
56944;BME280;42848;42.524;12.052;2023-03-20T10:47:27;96928.56;;;9.85;100.00
56944;BME280;42848;42.524;12.052;2023-03-20T10:50:00;96925.69;;;9.81;100.00
56944;BME280;42848;42.524;12.052;2023-03-20T10:52:32;96917.75;;;9.93;100.00
56944;BME280;42848;42.524;12.052;2023-03-20T10:55:03;96913.88;;;9.86;100.00
56944;BME280;42848;42.524;12.052;2023-03-20T10:57:35;96909.47;;;9.90;100.00
56944;BME280;42848;42.524;12.052;2023-03-20T11:00:03;96911.63;;;10.10;100.00
56944;BME280;42848;42.524;12.052;2023-03-20T11:02:30;96903.41;;;10.24;100.00
56944;BME280;42848;42.524;12.052;2023-03-20T11:05:00;96899.16;;;10.32;100.00
56944;BME280;42848;42.524;12.052;2023-03-20T11:07:31;96896.41;;;10.23;100.00
56944;BME280;42848;42.524;12.052;2023-03-20T11:12:33;96891.41;;;10.16;100.00
56944;BME280;42848;42.524;12.052;2023-03-20T11:15:14;96886.53;;;10.27;100.00
56944;BME280;42848;42.524;12.052;2023-03-20T11:17:40;96879.34;;;10.31;100.00
56944;BME280;42848;42.524;12.052;2023-03-20T11:20:06;96867.47;;;10.18;100.00
56944;BME280;42848;42.524;12.052;2023-03-20T11:22:33;96874.81;;;10.18;100.00
56944;BME280;42848;42.524;12.052;2023-03-20T11:25:00;96878.41;;;10.05;100.00
56944;BME280;42848;42.524;12.052;2023-03-20T11:27:29;96866.97;;;10.08;100.00
56944;BME280;42848;42.524;12.052;2023-03-20T11:29:56;96868.56;;;10.09;100.00
56944;BME280;42848;42.524;12.052;2023-03-20T11:34:55;96853.59;;;10.20;100.00
56944;BME280;42848;42.524;12.052;2023-03-20T11:37:27;96840.66;;;10.17;100.00
56944;BME280;42848;42.524;12.052;2023-03-20T11:42:35;96833.78;;;10.11;100.00
56944;BME280;42848;42.524;12.052;2023-03-20T11:45:15;96826.78;;;10.18;100.00
56944;BME280;42848;42.524;12.052;2023-03-20T11:47:42;96826.88;;;10.05;100.00
56944;BME280;42848;42.524;12.052;2023-03-20T11:50:32;96818.22;;;10.25;100.00
56944;BME280;42848;42.524;12.052;2023-03-20T11:53:00;96815.22;;;10.35;100.00
56944;BME280;42848;42.524;12.052;2023-03-20T11:55:29;96810.63;;;10.13;100.00
56944;BME280;42848;42.524;12.052;2023-03-20T11:58:01;96812.47;;;10.27;100.00
56944;BME280;42848;42.524;12.052;2023-03-20T12:00:36;96805.00;;;10.41;100.00
56944;BME280;42848;42.524;12.052;2023-03-20T12:05:59;96794.13;;;10.41;100.00
56944;BME280;42848;42.524;12.052;2023-03-20T12:08:27;96782.53;;;10.66;100.00
56944;BME280;42848;42.524;12.052;2023-03-20T12:11:05;96776.63;;;10.64;100.00
56944;BME280;42848;42.524;12.052;2023-03-20T12:13:38;96775.81;;;10.64;100.00
56944;BME280;42848;42.524;12.052;2023-03-20T12:16:13;96771.19;;;10.64;100.00
56944;BME280;42848;42.524;12.052;2023-03-20T12:19:20;96761.13;;;10.47;100.00
56944;BME280;42848;42.524;12.052;2023-03-20T12:21:58;96774.22;;;10.45;100.00
56944;BME280;42848;42.524;12.052;2023-03-20T12:24:42;96763.19;;;10.50;100.00
56944;BME280;42848;42.524;12.052;2023-03-20T12:27:31;96770.72;;;10.53;100.00
56944;BME280;42848;42.524;12.052;2023-03-20T12:30:17;96770.72;;;10.71;100.00
56944;BME280;42848;42.524;12.052;2023-03-20T12:33:15;96774.84;;;10.94;100.00
56944;BME280;42848;42.524;12.052;2023-03-20T12:35:47;96778.38;;;10.86;100.00
56944;BME280;42848;42.524;12.052;2023-03-20T12:38:29;96774.38;;;11.01;100.00
56944;BME280;42848;42.524;12.052;2023-03-20T12:41:19;96770.41;;;10.81;100.00
56944;BME280;42848;42.524;12.052;2023-03-20T12:43:53;96773.25;;;10.76;100.00
56944;BME280;42848;42.524;12.052;2023-03-20T12:49:07;96763.31;;;11.15;100.00
56944;BME280;42848;42.524;12.052;2023-03-20T12:57:33;96769.28;;;10.65;100.00
56944;BME280;42848;42.524;12.052;2023-03-20T13:00:14;96767.81;;;10.93;100.00
56944;BME280;42848;42.524;12.052;2023-03-20T13:05:35;96764.16;;;10.98;100.00
56944;BME280;42848;42.524;12.052;2023-03-20T13:08:32;96762.06;;;11.03;100.00
56944;BME280;42848;42.524;12.052;2023-03-20T13:11:10;96759.50;;;11.16;100.00
56944;BME280;42848;42.524;12.052;2023-03-20T13:13:53;96764.97;;;10.81;100.00
56944;BME280;42848;42.524;12.052;2023-03-20T13:16:41;96758.75;;;10.89;100.00
56944;BME280;42848;42.524;12.052;2023-03-20T13:19:33;96750.41;;;10.94;100.00
56944;BME280;42848;42.524;12.052;2023-03-20T13:22:14;96756.03;;;10.80;100.00
56944;BME280;42848;42.524;12.052;2023-03-20T13:24:49;96751.72;;;10.88;100.00
56944;BME280;42848;42.524;12.052;2023-03-20T13:30:02;96754.72;;;10.95;100.00
56944;BME280;42848;42.524;12.052;2023-03-20T13:32:47;96755.69;;;10.99;100.00
56944;BME280;42848;42.524;12.052;2023-03-20T13:38:22;96762.41;;;10.93;100.00
56944;BME280;42848;42.524;12.052;2023-03-20T13:41:01;96762.72;;;10.83;100.00
56944;BME280;42848;42.524;12.052;2023-03-20T13:43:44;96767.50;;;10.86;100.00
56944;BME280;42848;42.524;12.052;2023-03-20T13:46:17;96767.22;;;10.79;100.00
56944;BME280;42848;42.524;12.052;2023-03-20T13:48:44;96768.16;;;11.00;100.00
56944;BME280;42848;42.524;12.052;2023-03-20T13:54:10;96770.88;;;11.00;100.00
56944;BME280;42848;42.524;12.052;2023-03-20T14:01:49;96771.66;;;11.09;100.00
56944;BME280;42848;42.524;12.052;2023-03-20T14:04:21;96765.28;;;10.88;100.00
56944;BME280;42848;42.524;12.052;2023-03-20T14:06:56;96768.94;;;10.92;100.00
56944;BME280;42848;42.524;12.052;2023-03-20T14:11:58;96768.16;;;11.00;100.00
56944;BME280;42848;42.524;12.052;2023-03-20T14:14:33;96761.06;;;11.34;100.00
56944;BME280;42848;42.524;12.052;2023-03-20T14:19:39;96766.50;;;11.34;100.00
56944;BME280;42848;42.524;12.052;2023-03-20T14:22:05;96767.09;;;11.48;100.00
56944;BME280;42848;42.524;12.052;2023-03-20T14:24:35;96775.50;;;11.73;100.00
56944;BME280;42848;42.524;12.052;2023-03-20T14:27:02;96767.84;;;11.66;100.00
56944;BME280;42848;42.524;12.052;2023-03-20T14:35:34;96771.56;;;11.53;100.00
56944;BME280;42848;42.524;12.052;2023-03-20T14:38:06;96771.31;;;11.75;100.00